sensor_id;sensor_type;location;lat;lon;timestamp;temperature;humidity
8936;DHT22;4503;47.810;13.072;2022-09-01T00:01:47;18.50;99.90
8936;DHT22;4503;47.810;13.072;2022-09-01T00:04:16;18.50;99.90
8936;DHT22;4503;47.810;13.072;2022-09-01T00:06:45;18.50;99.90
8936;DHT22;4503;47.810;13.072;2022-09-01T00:09:17;18.50;99.90
8936;DHT22;4503;47.810;13.072;2022-09-01T00:11:47;18.50;99.90
8936;DHT22;4503;47.810;13.072;2022-09-01T00:14:15;18.50;99.90
8936;DHT22;4503;47.810;13.072;2022-09-01T00:16:41;18.50;99.90
8936;DHT22;4503;47.810;13.072;2022-09-01T00:19:07;18.50;99.90
8936;DHT22;4503;47.810;13.072;2022-09-01T00:21:37;18.50;99.90
8936;DHT22;4503;47.810;13.072;2022-09-01T00:24:06;18.50;99.90
8936;DHT22;4503;47.810;13.072;2022-09-01T00:26:34;18.50;99.90
8936;DHT22;4503;47.810;13.072;2022-09-01T00:29:01;18.50;99.90
8936;DHT22;4503;47.810;13.072;2022-09-01T00:31:27;18.50;99.90
8936;DHT22;4503;47.810;13.072;2022-09-01T00:33:53;18.50;99.90
8936;DHT22;4503;47.810;13.072;2022-09-01T00:36:20;18.50;99.90
8936;DHT22;4503;47.810;13.072;2022-09-01T00:38:47;18.50;99.90
8936;DHT22;4503;47.810;13.072;2022-09-01T00:41:15;18.40;99.90
8936;DHT22;4503;47.810;13.072;2022-09-01T00:43:55;18.40;99.90
8936;DHT22;4503;47.810;13.072;2022-09-01T00:46:30;18.40;99.90
8936;DHT22;4503;47.810;13.072;2022-09-01T00:49:09;18.40;99.90
8936;DHT22;4503;47.810;13.072;2022-09-01T00:51:51;18.40;99.90
8936;DHT22;4503;47.810;13.072;2022-09-01T00:54:24;18.40;99.90
8936;DHT22;4503;47.810;13.072;2022-09-01T00:56:53;18.40;99.90
8936;DHT22;4503;47.810;13.072;2022-09-01T00:59:23;18.40;99.90
8936;DHT22;4503;47.810;13.072;2022-09-01T01:01:50;18.40;99.90
8936;DHT22;4503;47.810;13.072;2022-09-01T01:04:16;18.40;99.90
8936;DHT22;4503;47.810;13.072;2022-09-01T01:06:47;18.50;99.90
8936;DHT22;4503;47.810;13.072;2022-09-01T01:09:25;18.50;99.90
8936;DHT22;4503;47.810;13.072;2022-09-01T01:11:52;18.50;99.90
8936;DHT22;4503;47.810;13.072;2022-09-01T01:14:19;18.50;99.90
8936;DHT22;4503;47.810;13.072;2022-09-01T01:16:47;18.50;99.90
8936;DHT22;4503;47.810;13.072;2022-09-01T01:22:21;18.50;99.90
8936;DHT22;4503;47.810;13.072;2022-09-01T01:25:22;18.50;99.90
8936;DHT22;4503;47.810;13.072;2022-09-01T01:27:49;18.60;99.90
8936;DHT22;4503;47.810;13.072;2022-09-01T01:30:17;18.50;99.90
8936;DHT22;4503;47.810;13.072;2022-09-01T01:32:44;18.50;99.90
8936;DHT22;4503;47.810;13.072;2022-09-01T01:35:14;18.50;99.90
8936;DHT22;4503;47.810;13.072;2022-09-01T01:37:45;18.50;99.90
8936;DHT22;4503;47.810;13.072;2022-09-01T01:40:15;18.50;99.90
8936;DHT22;4503;47.810;13.072;2022-09-01T01:42:46;18.50;99.90
8936;DHT22;4503;47.810;13.072;2022-09-01T01:45:16;18.50;99.90
8936;DHT22;4503;47.810;13.072;2022-09-01T01:47:46;18.40;99.90
8936;DHT22;4503;47.810;13.072;2022-09-01T01:50:26;18.40;99.90
8936;DHT22;4503;47.810;13.072;2022-09-01T01:53:00;18.40;99.90
8936;DHT22;4503;47.810;13.072;2022-09-01T01:55:28;18.40;99.90
8936;DHT22;4503;47.810;13.072;2022-09-01T01:57:59;18.40;99.90
8936;DHT22;4503;47.810;13.072;2022-09-01T02:00:30;18.30;99.90
8936;DHT22;4503;47.810;13.072;2022-09-01T02:02:59;18.30;99.90
8936;DHT22;4503;47.810;13.072;2022-09-01T02:05:30;18.30;99.90
8936;DHT22;4503;47.810;13.072;2022-09-01T02:08:05;18.30;99.90
8936;DHT22;4503;47.810;13.072;2022-09-01T02:10:37;18.30;99.90
8936;DHT22;4503;47.810;13.072;2022-09-01T02:13:07;18.30;99.90
8936;DHT22;4503;47.810;13.072;2022-09-01T02:15:42;18.30;99.90
8936;DHT22;4503;47.810;13.072;2022-09-01T02:18:20;18.20;99.90
8936;DHT22;4503;47.810;13.072;2022-09-01T02:20:53;18.30;99.90
8936;DHT22;4503;47.810;13.072;2022-09-01T02:23:20;18.20;99.90
8936;DHT22;4503;47.810;13.072;2022-09-01T02:25:57;18.20;99.90
8936;DHT22;4503;47.810;13.072;2022-09-01T02:28:28;18.10;99.90
8936;DHT22;4503;47.810;13.072;2022-09-01T02:30:57;18.10;99.90
8936;DHT22;4503;47.810;13.072;2022-09-01T02:33:25;18.10;99.90
8936;DHT22;4503;47.810;13.072;2022-09-01T02:36:09;18.10;99.90
8936;DHT22;4503;47.810;13.072;2022-09-01T02:38:38;18.10;99.90
8936;DHT22;4503;47.810;13.072;2022-09-01T02:41:09;18.10;99.90
8936;DHT22;4503;47.810;13.072;2022-09-01T02:43:36;18.10;99.90
8936;DHT22;4503;47.810;13.072;2022-09-01T02:46:03;18.10;99.90
8936;DHT22;4503;47.810;13.072;2022-09-01T02:48:39;18.10;99.90
8936;DHT22;4503;47.810;13.072;2022-09-01T02:51:13;18.00;99.90
8936;DHT22;4503;47.810;13.072;2022-09-01T02:53:43;18.00;99.90
8936;DHT22;4503;47.810;13.072;2022-09-01T02:56:14;18.00;99.90
8936;DHT22;4503;47.810;13.072;2022-09-01T02:58:42;18.00;99.90
8936;DHT22;4503;47.810;13.072;2022-09-01T03:01:15;18.00;99.90
8936;DHT22;4503;47.810;13.072;2022-09-01T03:03:51;18.10;99.90
8936;DHT22;4503;47.810;13.072;2022-09-01T03:06:20;18.10;99.90
8936;DHT22;4503;47.810;13.072;2022-09-01T03:08:52;18.10;99.90
8936;DHT22;4503;47.810;13.072;2022-09-01T03:11:20;18.10;99.90
8936;DHT22;4503;47.810;13.072;2022-09-01T03:13:48;18.10;99.90
8936;DHT22;4503;47.810;13.072;2022-09-01T03:16:14;18.10;99.90
8936;DHT22;4503;47.810;13.072;2022-09-01T03:18:40;18.20;99.90
8936;DHT22;4503;47.810;13.072;2022-09-01T03:21:08;18.20;99.90
8936;DHT22;4503;47.810;13.072;2022-09-01T03:23:39;18.20;99.90
8936;DHT22;4503;47.810;13.072;2022-09-01T03:26:06;18.20;99.90
8936;DHT22;4503;47.810;13.072;2022-09-01T03:28:32;18.30;99.90
8936;DHT22;4503;47.810;13.072;2022-09-01T03:30:58;18.30;99.90
8936;DHT22;4503;47.810;13.072;2022-09-01T03:33:26;18.30;99.90
8936;DHT22;4503;47.810;13.072;2022-09-01T03:35:53;18.20;99.90
8936;DHT22;4503;47.810;13.072;2022-09-01T03:38:20;18.30;99.90
8936;DHT22;4503;47.810;13.072;2022-09-01T03:40:51;18.30;99.90
8936;DHT22;4503;47.810;13.072;2022-09-01T03:43:27;18.20;99.90
8936;DHT22;4503;47.810;13.072;2022-09-01T03:45:56;18.20;99.90
8936;DHT22;4503;47.810;13.072;2022-09-01T03:48:29;18.20;99.90
8936;DHT22;4503;47.810;13.072;2022-09-01T03:50:57;18.20;99.90
8936;DHT22;4503;47.810;13.072;2022-09-01T03:53:28;18.20;99.90
8936;DHT22;4503;47.810;13.072;2022-09-01T03:55:56;18.20;99.90
8936;DHT22;4503;47.810;13.072;2022-09-01T03:58:23;18.20;99.90
8936;DHT22;4503;47.810;13.072;2022-09-01T04:00:55;18.20;99.90
8936;DHT22;4503;47.810;13.072;2022-09-01T04:03:24;18.20;99.90
8936;DHT22;4503;47.810;13.072;2022-09-01T04:05:56;18.20;99.90
8936;DHT22;4503;47.810;13.072;2022-09-01T04:08:23;18.20;99.90
8936;DHT22;4503;47.810;13.072;2022-09-01T04:10:54;18.20;99.90
8936;DHT22;4503;47.810;13.072;2022-09-01T04:13:23;18.20;99.90
8936;DHT22;4503;47.810;13.072;2022-09-01T04:15:52;18.20;99.90
8936;DHT22;4503;47.810;13.072;2022-09-01T04:18:19;18.20;99.90
8936;DHT22;4503;47.810;13.072;2022-09-01T04:20:53;18.20;99.90
8936;DHT22;4503;47.810;13.072;2022-09-01T04:23:29;18.20;99.90
8936;DHT22;4503;47.810;13.072;2022-09-01T04:26:02;18.10;99.90
8936;DHT22;4503;47.810;13.072;2022-09-01T04:28:36;18.10;99.90
8936;DHT22;4503;47.810;13.072;2022-09-01T04:31:08;18.00;99.90
8936;DHT22;4503;47.810;13.072;2022-09-01T04:33:39;18.00;99.90
8936;DHT22;4503;47.810;13.072;2022-09-01T04:36:13;17.90;99.90
8936;DHT22;4503;47.810;13.072;2022-09-01T04:38:42;17.90;99.90
8936;DHT22;4503;47.810;13.072;2022-09-01T04:41:08;17.80;99.90
8936;DHT22;4503;47.810;13.072;2022-09-01T04:43:34;17.80;99.90
8936;DHT22;4503;47.810;13.072;2022-09-01T04:46:01;17.70;99.90
8936;DHT22;4503;47.810;13.072;2022-09-01T04:48:27;17.70;99.90
8936;DHT22;4503;47.810;13.072;2022-09-01T04:50:53;17.60;99.90
8936;DHT22;4503;47.810;13.072;2022-09-01T04:53:21;17.60;99.90
8936;DHT22;4503;47.810;13.072;2022-09-01T04:55:49;17.60;99.90
8936;DHT22;4503;47.810;13.072;2022-09-01T04:58:18;17.60;99.90
8936;DHT22;4503;47.810;13.072;2022-09-01T05:00:46;17.50;99.90
8936;DHT22;4503;47.810;13.072;2022-09-01T05:03:16;17.50;99.90
8936;DHT22;4503;47.810;13.072;2022-09-01T05:05:46;17.50;99.90
8936;DHT22;4503;47.810;13.072;2022-09-01T05:08:14;17.50;99.90
8936;DHT22;4503;47.810;13.072;2022-09-01T05:10:46;17.50;99.90
8936;DHT22;4503;47.810;13.072;2022-09-01T05:13:17;17.50;99.90
8936;DHT22;4503;47.810;13.072;2022-09-01T05:15:46;17.50;99.90
8936;DHT22;4503;47.810;13.072;2022-09-01T05:20:41;17.50;99.90
8936;DHT22;4503;47.810;13.072;2022-09-01T05:23:11;17.50;99.90
8936;DHT22;4503;47.810;13.072;2022-09-01T05:25:43;17.50;99.90
8936;DHT22;4503;47.810;13.072;2022-09-01T05:28:11;17.60;99.90
8936;DHT22;4503;47.810;13.072;2022-09-01T05:30:39;17.60;99.90
8936;DHT22;4503;47.810;13.072;2022-09-01T05:33:07;17.70;99.90
8936;DHT22;4503;47.810;13.072;2022-09-01T05:35:37;17.60;99.90
8936;DHT22;4503;47.810;13.072;2022-09-01T05:38:09;17.70;99.90
8936;DHT22;4503;47.810;13.072;2022-09-01T05:40:41;17.70;99.90
8936;DHT22;4503;47.810;13.072;2022-09-01T05:43:12;17.70;99.90
8936;DHT22;4503;47.810;13.072;2022-09-01T05:45:41;17.70;99.90
8936;DHT22;4503;47.810;13.072;2022-09-01T05:48:10;17.70;99.90
8936;DHT22;4503;47.810;13.072;2022-09-01T05:50:40;17.70;99.90
8936;DHT22;4503;47.810;13.072;2022-09-01T05:53:10;17.70;99.90
8936;DHT22;4503;47.810;13.072;2022-09-01T05:55:43;17.70;99.90
8936;DHT22;4503;47.810;13.072;2022-09-01T05:58:13;17.70;99.90
8936;DHT22;4503;47.810;13.072;2022-09-01T06:00:45;17.60;99.90
8936;DHT22;4503;47.810;13.072;2022-09-01T06:03:14;17.70;99.90
8936;DHT22;4503;47.810;13.072;2022-09-01T06:05:42;17.70;99.90
8936;DHT22;4503;47.810;13.072;2022-09-01T06:08:10;17.70;99.90
8936;DHT22;4503;47.810;13.072;2022-09-01T06:10:39;17.70;99.90
8936;DHT22;4503;47.810;13.072;2022-09-01T06:13:09;17.70;99.90
8936;DHT22;4503;47.810;13.072;2022-09-01T06:15:37;17.70;99.90
8936;DHT22;4503;47.810;13.072;2022-09-01T06:18:06;17.80;99.90
8936;DHT22;4503;47.810;13.072;2022-09-01T06:20:38;17.80;99.90
8936;DHT22;4503;47.810;13.072;2022-09-01T06:23:08;17.80;99.90
8936;DHT22;4503;47.810;13.072;2022-09-01T06:25:40;17.90;99.90
8936;DHT22;4503;47.810;13.072;2022-09-01T06:28:08;17.90;99.90
8936;DHT22;4503;47.810;13.072;2022-09-01T06:30:36;17.90;99.90
8936;DHT22;4503;47.810;13.072;2022-09-01T06:33:03;18.00;99.90
8936;DHT22;4503;47.810;13.072;2022-09-01T06:35:34;18.00;99.90
8936;DHT22;4503;47.810;13.072;2022-09-01T06:38:06;18.10;99.90
8936;DHT22;4503;47.810;13.072;2022-09-01T06:40:33;18.20;99.90
8936;DHT22;4503;47.810;13.072;2022-09-01T06:43:01;18.20;99.90
8936;DHT22;4503;47.810;13.072;2022-09-01T06:45:35;18.20;99.90
8936;DHT22;4503;47.810;13.072;2022-09-01T06:48:05;18.20;99.90
8936;DHT22;4503;47.810;13.072;2022-09-01T06:50:31;18.30;99.90
8936;DHT22;4503;47.810;13.072;2022-09-01T06:52:57;18.30;99.90
8936;DHT22;4503;47.810;13.072;2022-09-01T06:55:36;18.40;99.90
8936;DHT22;4503;47.810;13.072;2022-09-01T06:58:05;18.50;99.90
8936;DHT22;4503;47.810;13.072;2022-09-01T07:00:34;18.60;99.90
8936;DHT22;4503;47.810;13.072;2022-09-01T07:03:07;18.80;99.90
8936;DHT22;4503;47.810;13.072;2022-09-01T07:05:40;18.90;99.90
8936;DHT22;4503;47.810;13.072;2022-09-01T07:12:16;19.20;99.90
8936;DHT22;4503;47.810;13.072;2022-09-01T07:14:44;19.40;99.90
8936;DHT22;4503;47.810;13.072;2022-09-01T07:17:12;19.50;99.90
8936;DHT22;4503;47.810;13.072;2022-09-01T07:19:40;19.70;99.90
8936;DHT22;4503;47.810;13.072;2022-09-01T07:22:06;19.70;99.90
8936;DHT22;4503;47.810;13.072;2022-09-01T07:24:31;19.80;99.90
8936;DHT22;4503;47.810;13.072;2022-09-01T07:26:58;19.80;99.90
8936;DHT22;4503;47.810;13.072;2022-09-01T07:29:24;19.90;99.90
8936;DHT22;4503;47.810;13.072;2022-09-01T07:31:50;19.90;99.90
8936;DHT22;4503;47.810;13.072;2022-09-01T07:34:18;20.00;99.90
8936;DHT22;4503;47.810;13.072;2022-09-01T07:36:44;20.00;99.90
8936;DHT22;4503;47.810;13.072;2022-09-01T07:39:11;20.10;99.90
8936;DHT22;4503;47.810;13.072;2022-09-01T07:41:39;20.10;99.90
8936;DHT22;4503;47.810;13.072;2022-09-01T07:44:07;20.20;99.90
8936;DHT22;4503;47.810;13.072;2022-09-01T07:46:37;20.30;99.90
8936;DHT22;4503;47.810;13.072;2022-09-01T07:49:03;20.40;99.90
8936;DHT22;4503;47.810;13.072;2022-09-01T07:51:30;20.50;99.90
8936;DHT22;4503;47.810;13.072;2022-09-01T07:53:58;20.50;99.90
8936;DHT22;4503;47.810;13.072;2022-09-01T07:56:27;20.60;99.90
8936;DHT22;4503;47.810;13.072;2022-09-01T07:58:55;20.60;99.90
8936;DHT22;4503;47.810;13.072;2022-09-01T08:01:25;20.70;99.90
8936;DHT22;4503;47.810;13.072;2022-09-01T08:03:55;20.80;99.90
8936;DHT22;4503;47.810;13.072;2022-09-01T08:06:25;20.90;99.90
8936;DHT22;4503;47.810;13.072;2022-09-01T08:12:38;20.90;99.90
8936;DHT22;4503;47.810;13.072;2022-09-01T08:15:07;21.00;99.90
8936;DHT22;4503;47.810;13.072;2022-09-01T08:17:36;21.10;99.90
8936;DHT22;4503;47.810;13.072;2022-09-01T08:20:02;21.10;99.90
8936;DHT22;4503;47.810;13.072;2022-09-01T08:22:33;21.20;99.90
8936;DHT22;4503;47.810;13.072;2022-09-01T08:24:59;21.30;99.90
8936;DHT22;4503;47.810;13.072;2022-09-01T08:27:26;21.30;99.90
8936;DHT22;4503;47.810;13.072;2022-09-01T08:29:52;21.40;99.90
8936;DHT22;4503;47.810;13.072;2022-09-01T08:32:19;21.50;99.90
8936;DHT22;4503;47.810;13.072;2022-09-01T08:34:46;21.50;99.90
8936;DHT22;4503;47.810;13.072;2022-09-01T08:37:12;21.60;99.90
8936;DHT22;4503;47.810;13.072;2022-09-01T08:39:38;21.70;99.90
8936;DHT22;4503;47.810;13.072;2022-09-01T08:45:46;21.80;99.90
8936;DHT22;4503;47.810;13.072;2022-09-01T08:48:46;21.90;99.90
8936;DHT22;4503;47.810;13.072;2022-09-01T08:51:41;22.00;99.90
8936;DHT22;4503;47.810;13.072;2022-09-01T08:54:24;22.00;99.90
8936;DHT22;4503;47.810;13.072;2022-09-01T08:57:00;22.20;99.90
8936;DHT22;4503;47.810;13.072;2022-09-01T08:59:31;22.20;99.90
8936;DHT22;4503;47.810;13.072;2022-09-01T09:05:28;22.40;99.90
8936;DHT22;4503;47.810;13.072;2022-09-01T09:18:28;22.90;99.90
8936;DHT22;4503;47.810;13.072;2022-09-01T09:21:37;22.90;99.90
8936;DHT22;4503;47.810;13.072;2022-09-01T09:24:31;22.90;99.90
8936;DHT22;4503;47.810;13.072;2022-09-01T09:27:30;22.90;99.90
8936;DHT22;4503;47.810;13.072;2022-09-01T09:30:07;22.90;99.90
8936;DHT22;4503;47.810;13.072;2022-09-01T09:33:07;22.90;99.90
8936;DHT22;4503;47.810;13.072;2022-09-01T09:35:42;22.90;99.90
8936;DHT22;4503;47.810;13.072;2022-09-01T09:41:06;22.90;99.90
8936;DHT22;4503;47.810;13.072;2022-09-01T09:46:21;22.90;99.90
8936;DHT22;4503;47.810;13.072;2022-09-01T09:49:25;22.80;99.90
8936;DHT22;4503;47.810;13.072;2022-09-01T09:51:55;22.90;99.90
8936;DHT22;4503;47.810;13.072;2022-09-01T09:54:30;22.90;99.90
8936;DHT22;4503;47.810;13.072;2022-09-01T09:59:41;22.90;99.80
8936;DHT22;4503;47.810;13.072;2022-09-01T10:04:58;23.00;99.90
8936;DHT22;4503;47.810;13.072;2022-09-01T10:14:52;23.30;99.90
8936;DHT22;4503;47.810;13.072;2022-09-01T10:17:31;23.40;99.20
8936;DHT22;4503;47.810;13.072;2022-09-01T10:20:17;23.40;99.10
8936;DHT22;4503;47.810;13.072;2022-09-01T10:23:01;23.50;99.30
8936;DHT22;4503;47.810;13.072;2022-09-01T10:25:29;23.60;99.30
8936;DHT22;4503;47.810;13.072;2022-09-01T10:28:07;23.60;99.30
8936;DHT22;4503;47.810;13.072;2022-09-01T10:30:41;23.70;98.60
8936;DHT22;4503;47.810;13.072;2022-09-01T10:33:13;23.70;98.50
8936;DHT22;4503;47.810;13.072;2022-09-01T10:35:43;23.80;98.40
8936;DHT22;4503;47.810;13.072;2022-09-01T10:38:29;23.80;98.40
8936;DHT22;4503;47.810;13.072;2022-09-01T10:40:57;23.90;98.70
8936;DHT22;4503;47.810;13.072;2022-09-01T10:43:41;24.00;98.40
8936;DHT22;4503;47.810;13.072;2022-09-01T10:48:51;24.10;97.90
8936;DHT22;4503;47.810;13.072;2022-09-01T10:53:52;24.20;97.80
8936;DHT22;4503;47.810;13.072;2022-09-01T10:59:07;24.30;98.20
8936;DHT22;4503;47.810;13.072;2022-09-01T11:15:04;24.40;96.10
8936;DHT22;4503;47.810;13.072;2022-09-01T11:20:23;24.50;95.80
8936;DHT22;4503;47.810;13.072;2022-09-01T11:25:42;24.70;95.60
8936;DHT22;4503;47.810;13.072;2022-09-01T11:47:24;26.60;93.00
8936;DHT22;4503;47.810;13.072;2022-09-01T11:50:06;26.80;92.50
8936;DHT22;4503;47.810;13.072;2022-09-01T11:52:42;27.10;92.30
8936;DHT22;4503;47.810;13.072;2022-09-01T11:55:33;27.30;90.10
8936;DHT22;4503;47.810;13.072;2022-09-01T11:58:11;27.50;89.00
8936;DHT22;4503;47.810;13.072;2022-09-01T12:00:40;27.60;85.20
8936;DHT22;4503;47.810;13.072;2022-09-01T12:03:22;27.70;86.80
8936;DHT22;4503;47.810;13.072;2022-09-01T12:05:57;27.90;87.70
8936;DHT22;4503;47.810;13.072;2022-09-01T12:12:32;28.30;85.20
8936;DHT22;4503;47.810;13.072;2022-09-01T12:17:41;28.60;79.10
8936;DHT22;4503;47.810;13.072;2022-09-01T12:20:25;28.60;77.90
8936;DHT22;4503;47.810;13.072;2022-09-01T12:22:52;28.60;76.70
8936;DHT22;4503;47.810;13.072;2022-09-01T12:25:30;28.50;73.00
8936;DHT22;4503;47.810;13.072;2022-09-01T12:28:03;28.50;73.20
8936;DHT22;4503;47.810;13.072;2022-09-01T12:30:33;28.60;75.60
8936;DHT22;4503;47.810;13.072;2022-09-01T12:33:08;28.80;78.30
8936;DHT22;4503;47.810;13.072;2022-09-01T12:35:36;29.10;75.40
8936;DHT22;4503;47.810;13.072;2022-09-01T12:38:34;29.20;76.90
8936;DHT22;4503;47.810;13.072;2022-09-01T12:41:00;29.30;73.60
8936;DHT22;4503;47.810;13.072;2022-09-01T12:43:38;29.30;77.00
8936;DHT22;4503;47.810;13.072;2022-09-01T12:46:06;29.40;74.50
8936;DHT22;4503;47.810;13.072;2022-09-01T12:48:38;29.40;73.00
8936;DHT22;4503;47.810;13.072;2022-09-01T12:51:24;29.40;71.40
8936;DHT22;4503;47.810;13.072;2022-09-01T12:53:52;29.50;73.60
8936;DHT22;4503;47.810;13.072;2022-09-01T12:56:33;29.50;72.60
8936;DHT22;4503;47.810;13.072;2022-09-01T12:59:32;29.50;71.90
8936;DHT22;4503;47.810;13.072;2022-09-01T13:03:04;29.70;75.90
8936;DHT22;4503;47.810;13.072;2022-09-01T13:05:35;29.80;72.50
8936;DHT22;4503;47.810;13.072;2022-09-01T13:12:19;29.80;72.50
8936;DHT22;4503;47.810;13.072;2022-09-01T13:14:46;29.80;73.50
8936;DHT22;4503;47.810;13.072;2022-09-01T13:17:12;29.70;71.50
8936;DHT22;4503;47.810;13.072;2022-09-01T13:19:39;29.70;71.60
8936;DHT22;4503;47.810;13.072;2022-09-01T13:22:07;29.70;71.60
8936;DHT22;4503;47.810;13.072;2022-09-01T13:24:32;29.80;71.80
8936;DHT22;4503;47.810;13.072;2022-09-01T13:26:58;29.90;72.80
8936;DHT22;4503;47.810;13.072;2022-09-01T13:29:24;30.00;71.60
8936;DHT22;4503;47.810;13.072;2022-09-01T13:31:51;30.10;69.80
8936;DHT22;4503;47.810;13.072;2022-09-01T13:34:17;30.10;70.30
8936;DHT22;4503;47.810;13.072;2022-09-01T13:36:43;30.00;69.50
8936;DHT22;4503;47.810;13.072;2022-09-01T13:39:09;30.00;71.30
8936;DHT22;4503;47.810;13.072;2022-09-01T13:41:36;29.90;70.20
8936;DHT22;4503;47.810;13.072;2022-09-01T13:44:04;29.90;70.00
8936;DHT22;4503;47.810;13.072;2022-09-01T13:46:29;30.00;71.30
8936;DHT22;4503;47.810;13.072;2022-09-01T13:48:55;30.00;68.90
8936;DHT22;4503;47.810;13.072;2022-09-01T13:51:26;30.10;68.60
8936;DHT22;4503;47.810;13.072;2022-09-01T13:53:53;30.00;68.20
8936;DHT22;4503;47.810;13.072;2022-09-01T13:56:20;30.00;69.30
8936;DHT22;4503;47.810;13.072;2022-09-01T13:58:46;30.00;68.90
8936;DHT22;4503;47.810;13.072;2022-09-01T14:01:13;30.10;69.00
8936;DHT22;4503;47.810;13.072;2022-09-01T14:06:15;30.10;69.70
8936;DHT22;4503;47.810;13.072;2022-09-01T14:12:22;30.30;67.60
8936;DHT22;4503;47.810;13.072;2022-09-01T14:14:48;30.30;69.70
8936;DHT22;4503;47.810;13.072;2022-09-01T14:17:14;30.40;71.40
8936;DHT22;4503;47.810;13.072;2022-09-01T14:19:40;30.50;70.60
8936;DHT22;4503;47.810;13.072;2022-09-01T14:22:07;30.60;71.00
8936;DHT22;4503;47.810;13.072;2022-09-01T14:24:35;30.70;70.90
8936;DHT22;4503;47.810;13.072;2022-09-01T14:27:02;30.70;67.80
8936;DHT22;4503;47.810;13.072;2022-09-01T14:29:28;30.60;68.50
8936;DHT22;4503;47.810;13.072;2022-09-01T14:31:54;30.40;67.50
8936;DHT22;4503;47.810;13.072;2022-09-01T14:34:22;30.30;67.90
8936;DHT22;4503;47.810;13.072;2022-09-01T14:36:49;30.20;69.50
8936;DHT22;4503;47.810;13.072;2022-09-01T14:39:17;30.10;68.70
8936;DHT22;4503;47.810;13.072;2022-09-01T14:41:43;30.10;69.30
8936;DHT22;4503;47.810;13.072;2022-09-01T14:44:09;30.10;68.80
8936;DHT22;4503;47.810;13.072;2022-09-01T14:46:35;30.10;68.30
8936;DHT22;4503;47.810;13.072;2022-09-01T14:49:02;30.10;69.70
8936;DHT22;4503;47.810;13.072;2022-09-01T14:51:30;30.20;71.50
8936;DHT22;4503;47.810;13.072;2022-09-01T14:53:57;30.40;72.20
8936;DHT22;4503;47.810;13.072;2022-09-01T14:56:24;30.50;73.60
8936;DHT22;4503;47.810;13.072;2022-09-01T14:58:52;30.70;74.00
8936;DHT22;4503;47.810;13.072;2022-09-01T15:01:23;30.80;73.70
8936;DHT22;4503;47.810;13.072;2022-09-01T15:03:50;30.90;75.50
8936;DHT22;4503;47.810;13.072;2022-09-01T15:06:18;31.10;76.90
8936;DHT22;4503;47.810;13.072;2022-09-01T15:12:35;31.50;69.10
8936;DHT22;4503;47.810;13.072;2022-09-01T15:15:04;31.70;68.20
8936;DHT22;4503;47.810;13.072;2022-09-01T15:17:31;31.80;69.90
8936;DHT22;4503;47.810;13.072;2022-09-01T15:19:58;32.00;71.50
8936;DHT22;4503;47.810;13.072;2022-09-01T15:22:45;32.10;72.00
8936;DHT22;4503;47.810;13.072;2022-09-01T15:25:12;32.30;70.70
8936;DHT22;4503;47.810;13.072;2022-09-01T15:27:38;32.40;70.60
8936;DHT22;4503;47.810;13.072;2022-09-01T15:30:04;32.50;69.50
8936;DHT22;4503;47.810;13.072;2022-09-01T15:32:37;32.60;71.00
8936;DHT22;4503;47.810;13.072;2022-09-01T15:35:03;32.90;72.30
8936;DHT22;4503;47.810;13.072;2022-09-01T15:37:30;33.10;70.50
8936;DHT22;4503;47.810;13.072;2022-09-01T15:39:56;33.30;70.20
8936;DHT22;4503;47.810;13.072;2022-09-01T15:42:21;33.40;67.50
8936;DHT22;4503;47.810;13.072;2022-09-01T15:44:48;33.40;68.30
8936;DHT22;4503;47.810;13.072;2022-09-01T15:47:14;33.50;70.50
8936;DHT22;4503;47.810;13.072;2022-09-01T15:49:40;33.70;71.30
8936;DHT22;4503;47.810;13.072;2022-09-01T15:52:06;33.80;71.40
8936;DHT22;4503;47.810;13.072;2022-09-01T15:54:36;33.90;71.80
8936;DHT22;4503;47.810;13.072;2022-09-01T15:57:03;34.00;67.70
8936;DHT22;4503;47.810;13.072;2022-09-01T15:59:30;34.10;68.00
8936;DHT22;4503;47.810;13.072;2022-09-01T16:01:57;34.10;70.50
8936;DHT22;4503;47.810;13.072;2022-09-01T16:04:23;34.20;71.60
8936;DHT22;4503;47.810;13.072;2022-09-01T16:14:17;34.50;70.50
8936;DHT22;4503;47.810;13.072;2022-09-01T16:17:06;34.50;73.00
8936;DHT22;4503;47.810;13.072;2022-09-01T16:22:37;34.20;71.50
8936;DHT22;4503;47.810;13.072;2022-09-01T16:25:16;34.00;69.00
8936;DHT22;4503;47.810;13.072;2022-09-01T16:27:47;33.80;68.00
8936;DHT22;4503;47.810;13.072;2022-09-01T16:30:21;33.50;66.90
8936;DHT22;4503;47.810;13.072;2022-09-01T16:32:49;33.10;64.90
8936;DHT22;4503;47.810;13.072;2022-09-01T16:35:16;32.60;65.00
8936;DHT22;4503;47.810;13.072;2022-09-01T16:41:07;31.90;66.60
8936;DHT22;4503;47.810;13.072;2022-09-01T16:43:48;31.70;68.70
8936;DHT22;4503;47.810;13.072;2022-09-01T16:46:34;31.60;68.00
8936;DHT22;4503;47.810;13.072;2022-09-01T16:52:27;31.10;67.30
8936;DHT22;4503;47.810;13.072;2022-09-01T17:00:21;30.20;64.70
8936;DHT22;4503;47.810;13.072;2022-09-01T17:03:18;29.90;64.80
8936;DHT22;4503;47.810;13.072;2022-09-01T17:06:02;29.60;65.50
8936;DHT22;4503;47.810;13.072;2022-09-01T17:12:53;29.00;63.70
8936;DHT22;4503;47.810;13.072;2022-09-01T17:15:39;28.50;63.20
8936;DHT22;4503;47.810;13.072;2022-09-01T17:20:51;27.60;62.70
8936;DHT22;4503;47.810;13.072;2022-09-01T17:23:25;27.10;62.40
8936;DHT22;4503;47.810;13.072;2022-09-01T17:26:06;26.60;62.00
8936;DHT22;4503;47.810;13.072;2022-09-01T17:28:55;26.10;62.90
8936;DHT22;4503;47.810;13.072;2022-09-01T17:37:32;24.70;63.50
8936;DHT22;4503;47.810;13.072;2022-09-01T17:48:49;23.40;65.50
8936;DHT22;4503;47.810;13.072;2022-09-01T17:51:53;23.20;65.80
8936;DHT22;4503;47.810;13.072;2022-09-01T17:55:05;23.00;66.30
8936;DHT22;4503;47.810;13.072;2022-09-01T17:58:05;22.80;67.00
8936;DHT22;4503;47.810;13.072;2022-09-01T18:01:02;22.70;67.50
8936;DHT22;4503;47.810;13.072;2022-09-01T18:04:18;22.50;67.90
8936;DHT22;4503;47.810;13.072;2022-09-01T18:06:53;22.40;68.70
8936;DHT22;4503;47.810;13.072;2022-09-01T18:09:29;22.30;68.70
8936;DHT22;4503;47.810;13.072;2022-09-01T18:12:08;22.20;69.00
8936;DHT22;4503;47.810;13.072;2022-09-01T18:14:58;22.10;69.40
8936;DHT22;4503;47.810;13.072;2022-09-01T18:17:46;22.00;69.50
8936;DHT22;4503;47.810;13.072;2022-09-01T18:23:16;21.90;70.10
8936;DHT22;4503;47.810;13.072;2022-09-01T18:28:16;21.60;70.20
8936;DHT22;4503;47.810;13.072;2022-09-01T18:39:42;21.40;71.80
8936;DHT22;4503;47.810;13.072;2022-09-01T18:42:32;21.40;71.60
8936;DHT22;4503;47.810;13.072;2022-09-01T18:52:06;21.10;72.40
8936;DHT22;4503;47.810;13.072;2022-09-01T18:54:43;21.00;72.90
8936;DHT22;4503;47.810;13.072;2022-09-01T18:57:23;21.00;72.70
8936;DHT22;4503;47.810;13.072;2022-09-01T19:00:16;20.90;73.20
8936;DHT22;4503;47.810;13.072;2022-09-01T19:03:17;20.80;73.30
8936;DHT22;4503;47.810;13.072;2022-09-01T19:05:56;20.80;73.50
8936;DHT22;4503;47.810;13.072;2022-09-01T19:08:41;20.70;73.90
8936;DHT22;4503;47.810;13.072;2022-09-01T19:11:37;20.60;73.90
8936;DHT22;4503;47.810;13.072;2022-09-01T19:20:13;20.40;74.00
8936;DHT22;4503;47.810;13.072;2022-09-01T19:25:45;20.30;74.20
8936;DHT22;4503;47.810;13.072;2022-09-01T19:28:52;20.20;75.00